createdAt,value
2022-12-19T00:05:14.321Z,29.40
2022-12-19T00:10:34.511Z,29.30
2022-12-19T00:15:54.753Z,29.20
2022-12-19T00:21:14.837Z,29.10
2022-12-19T00:26:34.841Z,29.10
2022-12-19T00:31:55.108Z,29.10
2022-12-19T00:37:15.242Z,29.20
2022-12-19T00:42:35.541Z,29.30
2022-12-19T00:47:55.636Z,29.40
2022-12-19T00:53:15.826Z,29.40
2022-12-19T00:58:35.895Z,29.30
2022-12-19T01:04:27.080Z,29.20
2022-12-19T01:09:36.369Z,29.10
2022-12-19T01:15:04.051Z,29.00
2022-12-19T01:20:29.662Z,29.10
2022-12-19T01:25:50.013Z,29.10
2022-12-19T01:31:10.130Z,29.30
2022-12-19T01:36:32.207Z,29.40
2022-12-19T01:41:52.307Z,29.40
2022-12-19T01:47:12.571Z,29.30
2022-12-19T01:52:32.865Z,29.20
2022-12-19T01:57:53.059Z,29.10
2022-12-19T02:03:13.200Z,29.10
2022-12-19T02:08:33.278Z,29.10
2022-12-19T02:13:54.843Z,29.10
2022-12-19T02:19:15.006Z,29.20
2022-12-19T02:24:35.116Z,29.30
2022-12-19T02:29:55.730Z,29.30
2022-12-19T02:35:15.834Z,29.30
2022-12-19T02:40:36.524Z,29.20
2022-12-19T02:45:56.588Z,29.10
2022-12-19T02:51:16.781Z,29.10
2022-12-19T02:56:36.736Z,29.00
2022-12-19T03:01:56.944Z,29.10
2022-12-19T03:07:17.006Z,29.20
2022-12-19T03:12:37.172Z,29.30
2022-12-19T03:17:57.278Z,29.30
2022-12-19T03:23:17.378Z,29.30
2022-12-19T03:28:37.469Z,29.20
2022-12-19T03:33:57.573Z,29.10
2022-12-19T03:39:17.741Z,29.10
2022-12-19T03:44:38.007Z,29.10
2022-12-19T03:49:58.211Z,29.20
2022-12-19T03:55:18.377Z,29.30
2022-12-19T04:00:38.448Z,29.30
2022-12-19T04:05:58.585Z,29.20
2022-12-19T04:11:18.796Z,29.20
2022-12-19T04:16:39.026Z,29.10
2022-12-19T04:21:59.085Z,29.10
2022-12-19T04:27:19.225Z,29.20
2022-12-19T04:32:39.429Z,29.30
2022-12-19T04:37:59.623Z,29.30
2022-12-19T04:43:19.578Z,29.30
2022-12-19T04:48:39.669Z,29.10
2022-12-19T04:53:59.763Z,29.10
2022-12-19T04:59:19.812Z,29.00
2022-12-19T05:04:39.915Z,29.00
2022-12-19T05:09:59.956Z,29.10
2022-12-19T05:15:19.867Z,29.20
2022-12-19T05:20:39.948Z,29.30
2022-12-19T05:26:00.123Z,29.30
2022-12-19T05:31:20.411Z,29.10
2022-12-19T05:36:40.351Z,29.00
2022-12-19T05:42:00.501Z,28.90
2022-12-19T05:47:20.629Z,28.90
2022-12-19T05:52:40.674Z,28.90
2022-12-19T05:58:00.869Z,29.00
2022-12-19T06:03:21.083Z,29.10
2022-12-19T06:08:41.049Z,29.30
2022-12-19T06:14:01.119Z,29.30
2022-12-19T06:19:21.232Z,29.20
2022-12-19T06:24:41.260Z,29.10
2022-12-19T06:30:01.498Z,28.90
2022-12-19T06:35:21.648Z,28.90
2022-12-19T06:40:41.751Z,28.90
2022-12-19T06:46:02.047Z,28.80
2022-12-19T06:51:22.259Z,28.90
2022-12-19T06:56:42.437Z,29.00
2022-12-19T07:02:02.698Z,29.20
2022-12-19T07:07:22.688Z,29.30
2022-12-19T07:12:42.867Z,29.30
2022-12-19T07:18:02.884Z,29.20
2022-12-19T07:23:23.120Z,29.00
2022-12-19T07:28:43.078Z,28.80
2022-12-19T07:34:03.231Z,28.80
2022-12-19T07:39:23.368Z,28.80
2022-12-19T07:44:43.696Z,28.80
2022-12-19T07:50:03.691Z,28.90
2022-12-19T07:55:23.984Z,29.00
2022-12-19T08:00:44.215Z,29.20
2022-12-19T08:06:04.269Z,29.30
2022-12-19T08:11:24.336Z,29.40
2022-12-19T08:17:18.804Z,29.30
2022-12-19T08:22:24.122Z,29.20
2022-12-19T08:27:44.225Z,29.10
2022-12-19T08:33:04.368Z,29.00
2022-12-19T08:38:24.469Z,29.00
2022-12-19T08:43:44.590Z,29.00
2022-12-19T08:49:04.699Z,29.00
2022-12-19T08:54:24.775Z,29.20
2022-12-19T08:59:44.931Z,29.30
2022-12-19T09:06:01.464Z,29.40
2022-12-19T09:10:45.740Z,29.50
2022-12-19T09:16:05.773Z,29.40
2022-12-19T09:21:25.931Z,29.30
2022-12-19T09:26:46.021Z,29.20
2022-12-19T09:32:06.242Z,29.20
2022-12-19T09:37:26.300Z,29.10
2022-12-19T09:42:46.532Z,29.20
2022-12-19T09:48:07.706Z,29.30
2022-12-19T09:53:29.268Z,29.30
2022-12-19T09:58:49.419Z,29.40
2022-12-19T10:04:09.471Z,29.40
2022-12-19T10:12:21.989Z,29.40
2022-12-19T10:15:09.478Z,29.40
2022-12-19T10:20:29.794Z,29.40
2022-12-19T10:25:49.889Z,29.40
2022-12-19T10:31:17.188Z,29.40
2022-12-19T10:37:25.226Z,29.50
2022-12-19T10:42:21.376Z,29.50
2022-12-19T10:47:41.549Z,29.50
2022-12-19T10:53:01.765Z,29.40
2022-12-19T10:58:21.910Z,29.40
2022-12-19T11:03:42.191Z,29.40
2022-12-19T11:09:02.101Z,29.40
2022-12-19T11:19:47.886Z,29.50
2022-12-19T11:29:32.284Z,29.60
2022-12-19T11:30:37.134Z,29.50
2022-12-19T11:37:02.049Z,29.40
2022-12-19T11:42:22.206Z,29.80
2022-12-19T11:47:42.434Z,29.40
2022-12-19T11:53:04.904Z,29.50
2022-12-19T11:58:27.156Z,29.50
2022-12-19T12:04:00.266Z,29.50
2022-12-19T12:12:48.308Z,29.40
2022-12-19T12:25:21.409Z,29.40
2022-12-19T12:31:10.493Z,29.30
2022-12-19T12:32:00.362Z,29.30
2022-12-19T12:35:57.126Z,29.30
2022-12-19T12:43:21.865Z,29.50
2022-12-19T12:48:42.076Z,29.60
2022-12-19T12:54:02.392Z,29.50
2022-12-19T12:59:22.537Z,29.40
2022-12-19T13:04:42.557Z,29.30
2022-12-19T13:10:02.833Z,29.20
2022-12-19T13:15:22.911Z,29.20
2022-12-19T13:20:43.023Z,29.30
2022-12-19T13:26:03.232Z,29.30
2022-12-19T13:31:23.823Z,29.40
2022-12-19T13:39:50.571Z,29.50
2022-12-19T13:42:23.631Z,29.50
2022-12-19T13:47:43.808Z,29.50
2022-12-19T13:53:03.924Z,29.40
2022-12-19T13:58:28.948Z,29.30
2022-12-19T14:03:49.879Z,29.30
2022-12-19T14:11:23.466Z,29.30
2022-12-19T14:15:02.159Z,29.30
2022-12-19T14:22:02.624Z,29.40
2022-12-19T14:28:28.119Z,29.50
2022-12-19T14:33:15.451Z,29.50
2022-12-19T14:38:19.392Z,29.50
2022-12-19T14:45:09.978Z,29.40
2022-12-19T14:54:22.568Z,29.40
2022-12-19T15:01:10.242Z,29.40
2022-12-19T15:05:49.752Z,29.50
2022-12-19T15:11:16.973Z,29.60
2022-12-19T15:16:38.798Z,29.60
2022-12-19T15:21:58.801Z,29.50
2022-12-19T15:27:18.837Z,29.40
2022-12-19T15:32:39.136Z,29.40
2022-12-19T15:37:59.280Z,29.40
2022-12-19T15:44:01.185Z,29.50
2022-12-19T15:49:00.033Z,29.60
2022-12-19T16:00:00.573Z,29.60
2022-12-19T16:05:20.608Z,29.60
2022-12-19T16:10:40.824Z,29.60
2022-12-19T16:16:00.986Z,29.40
2022-12-19T16:21:22.597Z,29.50
2022-12-19T16:26:44.490Z,29.50
2022-12-19T16:32:04.922Z,29.60
2022-12-19T16:37:31.751Z,29.70
2022-12-19T16:42:52.446Z,29.70
2022-12-19T16:48:12.600Z,29.60
2022-12-19T16:53:32.742Z,29.50
2022-12-19T16:58:52.851Z,29.40
2022-12-19T17:04:12.894Z,29.40
2022-12-19T17:09:33.205Z,29.40
2022-12-19T17:14:53.320Z,29.50
2022-12-19T17:20:13.390Z,29.60
2022-12-19T17:25:33.509Z,29.70
2022-12-19T17:30:53.801Z,29.70
2022-12-19T17:36:15.389Z,29.60
2022-12-19T17:41:37.259Z,29.60
2022-12-19T17:46:57.248Z,29.50
2022-12-19T17:52:17.473Z,29.50
2022-12-19T17:57:37.652Z,29.50
2022-12-19T18:02:58.208Z,29.50
2022-12-19T18:08:18.155Z,29.70
2022-12-19T18:13:38.257Z,29.80
2022-12-19T18:19:00.386Z,29.70
2022-12-19T18:24:20.525Z,29.70
2022-12-19T18:29:40.668Z,29.60
2022-12-19T18:35:00.920Z,29.50
2022-12-19T18:40:25.959Z,29.40
2022-12-19T18:45:49.648Z,29.50
2022-12-19T18:51:12.748Z,29.50
2022-12-19T18:56:32.901Z,29.60
2022-12-19T19:01:53.129Z,29.80
2022-12-19T19:07:13.330Z,29.70
2022-12-19T19:12:33.554Z,29.70
2022-12-19T19:17:53.685Z,30.00
2022-12-19T19:23:13.909Z,29.50
2022-12-19T19:28:37.116Z,29.50
2022-12-19T19:33:58.148Z,29.50
2022-12-19T19:39:18.503Z,29.50
2022-12-19T19:44:38.520Z,29.60
2022-12-19T19:49:58.565Z,29.70
2022-12-19T19:55:18.622Z,29.80
2022-12-19T20:00:39.052Z,29.80
2022-12-19T20:05:59.222Z,29.80
2022-12-19T20:11:19.418Z,29.70
2022-12-19T20:16:39.634Z,29.60
2022-12-19T20:21:59.612Z,29.60
2022-12-19T20:27:19.814Z,29.70
2022-12-19T20:32:40.016Z,29.80
2022-12-19T20:38:00.134Z,29.80
2022-12-19T20:43:20.360Z,29.90
2022-12-19T20:48:40.617Z,29.90
2022-12-19T20:54:00.681Z,29.90
2022-12-19T20:59:20.922Z,29.80
2022-12-19T21:04:41.316Z,29.80
2022-12-19T21:10:01.340Z,29.90
2022-12-19T21:15:21.516Z,29.90
2022-12-19T21:20:41.680Z,30.00
2022-12-19T21:26:01.990Z,29.90
2022-12-19T21:31:22.083Z,29.90
2022-12-19T21:36:42.288Z,29.90
2022-12-19T21:42:02.813Z,29.90
2022-12-19T21:47:23.103Z,31.00
2022-12-19T21:52:43.143Z,30.10
2022-12-19T21:58:03.510Z,30.00
2022-12-19T22:03:23.643Z,30.00
2022-12-19T22:08:43.887Z,30.00
2022-12-19T22:14:04.055Z,29.90
2022-12-19T22:19:24.462Z,29.90
2022-12-19T22:24:44.497Z,29.90
2022-12-19T22:30:10.630Z,29.90
2022-12-19T22:35:31.430Z,29.90
2022-12-19T22:40:51.710Z,30.00
2022-12-19T22:46:11.946Z,30.00
2022-12-19T22:51:32.114Z,30.00
2022-12-19T22:56:52.277Z,30.00
2022-12-19T23:02:12.625Z,30.00
2022-12-19T23:07:32.512Z,30.00
2022-12-19T23:12:52.629Z,30.00
2022-12-19T23:18:12.771Z,30.00
2022-12-19T23:23:32.876Z,30.10
2022-12-19T23:28:54.030Z,30.10
2022-12-19T23:34:14.173Z,30.10
2022-12-19T23:39:34.366Z,30.00
2022-12-19T23:44:54.490Z,30.10
2022-12-19T23:50:14.516Z,30.10
2022-12-19T23:55:34.657Z,30.10
